sensor_id;sensor_type;location;lat;lon;timestamp;pressure;altitude;pressure_sealevel;temperature;humidity
4586;BME280;2305;50.118;8.952;2023-09-19T00:02:23;99936.97;;;19.16;100.00
4586;BME280;2305;50.118;8.952;2023-09-19T00:04:52;99950.75;;;19.34;100.00
4586;BME280;2305;50.118;8.952;2023-09-19T00:07:20;99946.94;;;19.22;100.00
4586;BME280;2305;50.118;8.952;2023-09-19T00:09:49;99945.16;;;19.29;100.00
4586;BME280;2305;50.118;8.952;2023-09-19T00:12:19;99949.22;;;19.25;100.00
4586;BME280;2305;50.118;8.952;2023-09-19T00:14:47;99945.47;;;19.20;100.00
4586;BME280;2305;50.118;8.952;2023-09-19T00:17:16;99951.63;;;19.20;100.00
4586;BME280;2305;50.118;8.952;2023-09-19T00:19:47;99956.81;;;19.07;100.00
4586;BME280;2305;50.118;8.952;2023-09-19T00:22:18;99959.19;;;19.02;100.00
4586;BME280;2305;50.118;8.952;2023-09-19T00:24:46;99960.22;;;19.01;100.00
4586;BME280;2305;50.118;8.952;2023-09-19T00:27:22;99960.56;;;18.98;100.00
4586;BME280;2305;50.118;8.952;2023-09-19T00:29:53;99967.22;;;19.02;100.00
4586;BME280;2305;50.118;8.952;2023-09-19T00:32:24;99972.25;;;19.12;100.00
4586;BME280;2305;50.118;8.952;2023-09-19T00:34:52;99966.19;;;19.03;100.00
4586;BME280;2305;50.118;8.952;2023-09-19T00:37:20;99970.97;;;19.08;100.00
4586;BME280;2305;50.118;8.952;2023-09-19T00:39:48;99955.44;;;18.97;100.00
4586;BME280;2305;50.118;8.952;2023-09-19T00:42:19;99966.47;;;18.94;100.00
4586;BME280;2305;50.118;8.952;2023-09-19T00:44:49;99956.88;;;18.99;100.00
4586;BME280;2305;50.118;8.952;2023-09-19T00:47:18;99953.41;;;18.99;100.00
4586;BME280;2305;50.118;8.952;2023-09-19T00:49:47;99956.88;;;18.99;100.00
4586;BME280;2305;50.118;8.952;2023-09-19T00:52:17;99962.06;;;19.01;100.00
4586;BME280;2305;50.118;8.952;2023-09-19T00:54:46;99958.00;;;19.05;100.00
4586;BME280;2305;50.118;8.952;2023-09-19T00:57:15;99967.38;;;19.01;100.00
4586;BME280;2305;50.118;8.952;2023-09-19T00:59:44;99966.59;;;19.00;100.00
4586;BME280;2305;50.118;8.952;2023-09-19T01:02:15;99960.78;;;18.97;100.00
4586;BME280;2305;50.118;8.952;2023-09-19T01:04:47;99971.91;;;19.00;100.00
4586;BME280;2305;50.118;8.952;2023-09-19T01:07:15;99970.69;;;19.03;100.00
4586;BME280;2305;50.118;8.952;2023-09-19T01:09:45;99970.25;;;18.99;100.00
4586;BME280;2305;50.118;8.952;2023-09-19T01:12:22;99979.38;;;19.05;100.00
4586;BME280;2305;50.118;8.952;2023-09-19T01:14:58;99982.78;;;18.99;100.00
4586;BME280;2305;50.118;8.952;2023-09-19T01:17:44;99981.59;;;19.01;100.00
4586;BME280;2305;50.118;8.952;2023-09-19T01:20:27;99988.56;;;19.02;100.00
4586;BME280;2305;50.118;8.952;2023-09-19T01:23:10;99994.72;;;19.03;100.00
4586;BME280;2305;50.118;8.952;2023-09-19T01:26:06;99989.00;;;19.20;100.00
4586;BME280;2305;50.118;8.952;2023-09-19T01:28:45;100001.81;;;19.10;100.00
4586;BME280;2305;50.118;8.952;2023-09-19T01:31:23;100012.63;;;19.02;100.00
4586;BME280;2305;50.118;8.952;2023-09-19T01:33:57;100015.63;;;19.14;100.00
4586;BME280;2305;50.118;8.952;2023-09-19T01:36:31;100015.81;;;19.12;100.00
4586;BME280;2305;50.118;8.952;2023-09-19T01:39:04;100020.13;;;19.13;100.00
4586;BME280;2305;50.118;8.952;2023-09-19T01:41:45;100017.22;;;19.08;100.00
4586;BME280;2305;50.118;8.952;2023-09-19T01:44:23;100022.34;;;19.10;100.00
4586;BME280;2305;50.118;8.952;2023-09-19T01:46:55;100025.69;;;19.12;100.00
4586;BME280;2305;50.118;8.952;2023-09-19T01:49:37;100032.22;;;19.24;100.00
4586;BME280;2305;50.118;8.952;2023-09-19T01:52:14;100038.56;;;19.23;100.00
4586;BME280;2305;50.118;8.952;2023-09-19T01:54:50;100037.28;;;19.19;100.00
4586;BME280;2305;50.118;8.952;2023-09-19T01:57:25;100039.41;;;19.23;100.00
4586;BME280;2305;50.118;8.952;2023-09-19T02:00:00;100040.78;;;19.19;100.00
4586;BME280;2305;50.118;8.952;2023-09-19T02:02:44;100036.16;;;19.13;100.00
4586;BME280;2305;50.118;8.952;2023-09-19T02:05:13;100038.38;;;19.10;100.00
4586;BME280;2305;50.118;8.952;2023-09-19T02:07:41;100043.09;;;19.08;100.00
4586;BME280;2305;50.118;8.952;2023-09-19T02:10:13;100035.25;;;19.06;100.00
4586;BME280;2305;50.118;8.952;2023-09-19T02:12:42;100051.09;;;19.08;100.00
4586;BME280;2305;50.118;8.952;2023-09-19T02:15:12;100048.41;;;19.08;100.00
4586;BME280;2305;50.118;8.952;2023-09-19T02:17:44;100047.63;;;19.07;100.00
4586;BME280;2305;50.118;8.952;2023-09-19T02:20:13;100052.28;;;19.05;100.00
4586;BME280;2305;50.118;8.952;2023-09-19T02:22:46;100055.88;;;19.12;100.00
4586;BME280;2305;50.118;8.952;2023-09-19T02:25:17;100055.81;;;19.06;100.00
4586;BME280;2305;50.118;8.952;2023-09-19T02:27:46;100063.25;;;18.96;100.00
4586;BME280;2305;50.118;8.952;2023-09-19T02:30:17;100063.47;;;18.94;100.00
4586;BME280;2305;50.118;8.952;2023-09-19T02:32:49;100064.81;;;18.90;100.00
4586;BME280;2305;50.118;8.952;2023-09-19T02:35:18;100075.06;;;19.01;100.00
4586;BME280;2305;50.118;8.952;2023-09-19T02:37:47;100071.25;;;18.96;100.00
4586;BME280;2305;50.118;8.952;2023-09-19T02:40:16;100072.84;;;18.90;100.00
4586;BME280;2305;50.118;8.952;2023-09-19T02:42:53;100075.88;;;18.88;100.00
4586;BME280;2305;50.118;8.952;2023-09-19T02:45:25;100076.78;;;18.80;100.00
4586;BME280;2305;50.118;8.952;2023-09-19T02:47:58;100079.16;;;18.75;100.00
4586;BME280;2305;50.118;8.952;2023-09-19T02:50:29;100092.44;;;18.69;100.00
4586;BME280;2305;50.118;8.952;2023-09-19T02:53:00;100091.41;;;18.70;100.00
4586;BME280;2305;50.118;8.952;2023-09-19T02:55:33;100092.91;;;18.72;100.00
4586;BME280;2305;50.118;8.952;2023-09-19T02:58:03;100087.00;;;18.62;100.00
4586;BME280;2305;50.118;8.952;2023-09-19T03:00:32;100097.59;;;18.70;100.00
4586;BME280;2305;50.118;8.952;2023-09-19T03:03:02;100103.41;;;18.74;100.00
4586;BME280;2305;50.118;8.952;2023-09-19T03:05:37;100101.81;;;18.65;100.00
4586;BME280;2305;50.118;8.952;2023-09-19T03:08:07;100108.16;;;18.64;100.00
4586;BME280;2305;50.118;8.952;2023-09-19T03:10:39;100107.22;;;18.57;100.00
4586;BME280;2305;50.118;8.952;2023-09-19T03:13:09;100105.09;;;18.52;100.00
4586;BME280;2305;50.118;8.952;2023-09-19T03:15:41;100112.63;;;18.49;100.00
4586;BME280;2305;50.118;8.952;2023-09-19T03:18:13;100106.28;;;18.50;100.00
4586;BME280;2305;50.118;8.952;2023-09-19T03:20:41;100113.50;;;18.64;100.00
4586;BME280;2305;50.118;8.952;2023-09-19T03:23:12;100101.88;;;18.57;100.00
4586;BME280;2305;50.118;8.952;2023-09-19T03:25:42;100115.03;;;18.44;100.00
4586;BME280;2305;50.118;8.952;2023-09-19T03:28:16;100121.63;;;18.33;100.00
4586;BME280;2305;50.118;8.952;2023-09-19T03:30:45;100116.28;;;18.33;100.00
4586;BME280;2305;50.118;8.952;2023-09-19T03:33:15;100107.19;;;18.42;100.00
4586;BME280;2305;50.118;8.952;2023-09-19T03:35:52;100110.97;;;18.48;100.00
4586;BME280;2305;50.118;8.952;2023-09-19T03:38:20;100110.16;;;18.47;100.00
4586;BME280;2305;50.118;8.952;2023-09-19T03:40:49;100115.44;;;18.55;100.00
4586;BME280;2305;50.118;8.952;2023-09-19T03:43:18;100108.38;;;18.40;100.00
4586;BME280;2305;50.118;8.952;2023-09-19T03:45:46;100116.13;;;18.27;100.00
4586;BME280;2305;50.118;8.952;2023-09-19T03:48:17;100116.03;;;18.20;100.00
4586;BME280;2305;50.118;8.952;2023-09-19T03:50:46;100111.75;;;18.11;100.00
4586;BME280;2305;50.118;8.952;2023-09-19T03:53:15;100104.28;;;18.07;100.00
4586;BME280;2305;50.118;8.952;2023-09-19T03:55:44;100105.75;;;18.09;100.00
4586;BME280;2305;50.118;8.952;2023-09-19T03:58:13;100108.44;;;18.09;100.00
4586;BME280;2305;50.118;8.952;2023-09-19T04:00:41;100105.13;;;18.07;100.00
4586;BME280;2305;50.118;8.952;2023-09-19T04:03:13;100107.97;;;18.06;100.00
4586;BME280;2305;50.118;8.952;2023-09-19T04:05:53;100115.41;;;18.10;100.00
4586;BME280;2305;50.118;8.952;2023-09-19T04:08:21;100110.03;;;18.18;100.00
4586;BME280;2305;50.118;8.952;2023-09-19T04:10:49;100112.59;;;18.12;100.00
4586;BME280;2305;50.118;8.952;2023-09-19T04:13:18;100115.94;;;18.06;100.00
4586;BME280;2305;50.118;8.952;2023-09-19T04:15:46;100115.38;;;17.96;100.00
4586;BME280;2305;50.118;8.952;2023-09-19T04:18:16;100116.66;;;17.77;100.00
4586;BME280;2305;50.118;8.952;2023-09-19T04:20:48;100124.34;;;17.72;100.00
4586;BME280;2305;50.118;8.952;2023-09-19T04:23:18;100132.66;;;17.77;100.00
4586;BME280;2305;50.118;8.952;2023-09-19T04:25:50;100132.81;;;17.76;100.00
4586;BME280;2305;50.118;8.952;2023-09-19T04:28:18;100135.91;;;17.87;100.00
4586;BME280;2305;50.118;8.952;2023-09-19T04:30:47;100144.44;;;17.83;100.00
4586;BME280;2305;50.118;8.952;2023-09-19T04:33:16;100151.31;;;17.77;100.00
4586;BME280;2305;50.118;8.952;2023-09-19T04:35:44;100151.16;;;17.71;100.00
4586;BME280;2305;50.118;8.952;2023-09-19T04:38:14;100165.19;;;17.65;100.00
4586;BME280;2305;50.118;8.952;2023-09-19T04:40:44;100172.31;;;17.72;100.00
4586;BME280;2305;50.118;8.952;2023-09-19T04:43:13;100171.63;;;17.78;100.00
4586;BME280;2305;50.118;8.952;2023-09-19T04:45:46;100168.78;;;17.80;100.00
4586;BME280;2305;50.118;8.952;2023-09-19T04:48:14;100168.25;;;17.84;100.00
4586;BME280;2305;50.118;8.952;2023-09-19T04:50:45;100170.56;;;17.87;100.00
4586;BME280;2305;50.118;8.952;2023-09-19T04:53:17;100173.03;;;17.97;100.00
4586;BME280;2305;50.118;8.952;2023-09-19T04:55:51;100181.66;;;17.99;100.00
4586;BME280;2305;50.118;8.952;2023-09-19T04:58:22;100176.50;;;17.97;100.00
4586;BME280;2305;50.118;8.952;2023-09-19T05:00:50;100177.81;;;18.01;100.00
4586;BME280;2305;50.118;8.952;2023-09-19T05:03:19;100176.97;;;18.01;100.00
4586;BME280;2305;50.118;8.952;2023-09-19T05:05:49;100181.72;;;17.91;100.00
4586;BME280;2305;50.118;8.952;2023-09-19T05:08:19;100181.06;;;17.89;100.00
4586;BME280;2305;50.118;8.952;2023-09-19T05:10:50;100179.56;;;17.86;100.00
4586;BME280;2305;50.118;8.952;2023-09-19T05:13:18;100176.44;;;17.83;100.00
4586;BME280;2305;50.118;8.952;2023-09-19T05:15:48;100174.06;;;17.88;100.00
4586;BME280;2305;50.118;8.952;2023-09-19T05:18:17;100179.25;;;17.81;100.00
4586;BME280;2305;50.118;8.952;2023-09-19T05:20:47;100183.78;;;17.81;100.00
4586;BME280;2305;50.118;8.952;2023-09-19T05:23:16;100184.06;;;17.86;100.00
4586;BME280;2305;50.118;8.952;2023-09-19T05:25:52;100190.34;;;17.93;100.00
4586;BME280;2305;50.118;8.952;2023-09-19T05:31:47;100182.06;;;17.88;100.00
4586;BME280;2305;50.118;8.952;2023-09-19T05:34:16;100192.50;;;17.97;100.00
4586;BME280;2305;50.118;8.952;2023-09-19T05:36:44;100191.31;;;18.00;100.00
4586;BME280;2305;50.118;8.952;2023-09-19T05:39:14;100188.84;;;17.98;100.00
4586;BME280;2305;50.118;8.952;2023-09-19T05:41:46;100194.81;;;18.00;100.00
4586;BME280;2305;50.118;8.952;2023-09-19T05:44:15;100200.47;;;18.05;100.00
4586;BME280;2305;50.118;8.952;2023-09-19T05:46:46;100200.22;;;18.15;100.00
4586;BME280;2305;50.118;8.952;2023-09-19T05:49:15;100192.69;;;18.18;100.00
4586;BME280;2305;50.118;8.952;2023-09-19T05:51:44;100201.44;;;18.12;100.00
4586;BME280;2305;50.118;8.952;2023-09-19T05:54:16;100201.72;;;18.17;100.00
4586;BME280;2305;50.118;8.952;2023-09-19T05:56:48;100212.53;;;18.24;100.00
4586;BME280;2305;50.118;8.952;2023-09-19T05:59:21;100218.16;;;18.29;100.00
4586;BME280;2305;50.118;8.952;2023-09-19T06:01:50;100216.38;;;18.21;100.00
4586;BME280;2305;50.118;8.952;2023-09-19T06:04:21;100226.19;;;18.21;100.00
4586;BME280;2305;50.118;8.952;2023-09-19T06:06:52;100221.81;;;18.28;100.00
4586;BME280;2305;50.118;8.952;2023-09-19T06:09:20;100228.34;;;18.33;100.00
4586;BME280;2305;50.118;8.952;2023-09-19T06:11:54;100235.53;;;18.25;100.00
4586;BME280;2305;50.118;8.952;2023-09-19T06:14:24;100230.53;;;18.22;100.00
4586;BME280;2305;50.118;8.952;2023-09-19T06:16:54;100237.34;;;18.24;100.00
4586;BME280;2305;50.118;8.952;2023-09-19T06:19:23;100231.50;;;18.37;100.00
4586;BME280;2305;50.118;8.952;2023-09-19T06:21:52;100239.13;;;18.40;100.00
4586;BME280;2305;50.118;8.952;2023-09-19T06:24:22;100235.34;;;18.34;100.00
4586;BME280;2305;50.118;8.952;2023-09-19T06:26:52;100235.81;;;18.38;100.00
4586;BME280;2305;50.118;8.952;2023-09-19T06:29:24;100252.34;;;18.33;100.00
4586;BME280;2305;50.118;8.952;2023-09-19T06:31:53;100253.06;;;18.50;100.00
4586;BME280;2305;50.118;8.952;2023-09-19T06:34:22;100248.09;;;18.47;100.00
4586;BME280;2305;50.118;8.952;2023-09-19T06:36:51;100255.50;;;18.59;100.00
4586;BME280;2305;50.118;8.952;2023-09-19T06:39:22;100249.03;;;18.54;100.00
4586;BME280;2305;50.118;8.952;2023-09-19T06:41:53;100248.81;;;18.63;100.00
4586;BME280;2305;50.118;8.952;2023-09-19T06:44:22;100259.59;;;18.70;100.00
4586;BME280;2305;50.118;8.952;2023-09-19T06:46:53;100268.44;;;18.70;100.00
4586;BME280;2305;50.118;8.952;2023-09-19T06:49:22;100261.31;;;18.63;100.00
4586;BME280;2305;50.118;8.952;2023-09-19T06:51:50;100264.47;;;18.66;100.00
4586;BME280;2305;50.118;8.952;2023-09-19T06:54:21;100268.00;;;18.81;100.00
4586;BME280;2305;50.118;8.952;2023-09-19T06:56:50;100274.66;;;18.85;100.00
4586;BME280;2305;50.118;8.952;2023-09-19T06:59:19;100281.66;;;18.86;100.00
4586;BME280;2305;50.118;8.952;2023-09-19T07:01:50;100283.69;;;18.84;100.00
4586;BME280;2305;50.118;8.952;2023-09-19T07:04:21;100282.91;;;18.76;100.00
4586;BME280;2305;50.118;8.952;2023-09-19T07:06:49;100278.53;;;18.83;100.00
4586;BME280;2305;50.118;8.952;2023-09-19T07:09:20;100285.69;;;18.82;100.00
4586;BME280;2305;50.118;8.952;2023-09-19T07:11:49;100288.31;;;18.90;100.00
4586;BME280;2305;50.118;8.952;2023-09-19T07:14:17;100280.59;;;18.95;100.00
4586;BME280;2305;50.118;8.952;2023-09-19T07:16:47;100288.03;;;18.99;100.00
4586;BME280;2305;50.118;8.952;2023-09-19T07:19:16;100291.72;;;18.98;100.00
4586;BME280;2305;50.118;8.952;2023-09-19T07:21:45;100304.50;;;19.11;100.00
4586;BME280;2305;50.118;8.952;2023-09-19T07:24:17;100306.25;;;19.18;100.00
4586;BME280;2305;50.118;8.952;2023-09-19T07:26:48;100312.41;;;19.27;100.00
4586;BME280;2305;50.118;8.952;2023-09-19T07:29:16;100320.06;;;19.30;100.00
4586;BME280;2305;50.118;8.952;2023-09-19T07:31:45;100319.97;;;19.38;100.00
4586;BME280;2305;50.118;8.952;2023-09-19T07:34:14;100323.97;;;19.42;100.00
4586;BME280;2305;50.118;8.952;2023-09-19T07:36:44;100336.47;;;19.41;100.00
4586;BME280;2305;50.118;8.952;2023-09-19T07:39:15;100342.75;;;19.48;100.00
4586;BME280;2305;50.118;8.952;2023-09-19T07:41:49;100338.81;;;19.44;100.00
4586;BME280;2305;50.118;8.952;2023-09-19T07:44:18;100345.16;;;19.43;100.00
4586;BME280;2305;50.118;8.952;2023-09-19T07:46:47;100349.88;;;19.56;100.00
4586;BME280;2305;50.118;8.952;2023-09-19T07:49:17;100351.94;;;19.68;100.00
4586;BME280;2305;50.118;8.952;2023-09-19T07:51:46;100363.25;;;19.70;100.00
4586;BME280;2305;50.118;8.952;2023-09-19T07:54:16;100361.81;;;19.68;100.00
4586;BME280;2305;50.118;8.952;2023-09-19T07:56:45;100365.03;;;19.78;100.00
4586;BME280;2305;50.118;8.952;2023-09-19T07:59:13;100356.16;;;19.77;100.00
4586;BME280;2305;50.118;8.952;2023-09-19T08:01:41;100357.84;;;19.78;100.00
4586;BME280;2305;50.118;8.952;2023-09-19T08:04:11;100347.06;;;19.86;100.00
4586;BME280;2305;50.118;8.952;2023-09-19T08:06:40;100363.28;;;19.85;100.00
4586;BME280;2305;50.118;8.952;2023-09-19T08:09:11;100365.13;;;19.84;100.00
4586;BME280;2305;50.118;8.952;2023-09-19T08:11:52;100368.00;;;19.83;100.00
4586;BME280;2305;50.118;8.952;2023-09-19T08:14:20;100364.66;;;19.81;100.00
4586;BME280;2305;50.118;8.952;2023-09-19T08:16:56;100373.63;;;19.88;100.00
4586;BME280;2305;50.118;8.952;2023-09-19T08:19:25;100365.25;;;19.91;100.00
4586;BME280;2305;50.118;8.952;2023-09-19T08:21:56;100369.66;;;19.98;100.00
4586;BME280;2305;50.118;8.952;2023-09-19T08:24:26;100362.00;;;19.95;100.00
4586;BME280;2305;50.118;8.952;2023-09-19T08:26:57;100366.41;;;20.03;100.00
4586;BME280;2305;50.118;8.952;2023-09-19T08:29:28;100361.78;;;20.05;100.00
4586;BME280;2305;50.118;8.952;2023-09-19T08:31:59;100360.25;;;19.88;100.00
4586;BME280;2305;50.118;8.952;2023-09-19T08:34:30;100367.06;;;19.90;100.00
4586;BME280;2305;50.118;8.952;2023-09-19T08:37:01;100365.88;;;19.93;100.00
4586;BME280;2305;50.118;8.952;2023-09-19T08:39:29;100368.59;;;20.07;100.00
4586;BME280;2305;50.118;8.952;2023-09-19T08:42:02;100379.22;;;20.15;100.00
4586;BME280;2305;50.118;8.952;2023-09-19T08:44:36;100375.59;;;20.23;100.00
4586;BME280;2305;50.118;8.952;2023-09-19T08:47:10;100391.00;;;20.21;100.00
4586;BME280;2305;50.118;8.952;2023-09-19T08:49:56;100383.97;;;20.34;100.00
4586;BME280;2305;50.118;8.952;2023-09-19T08:52:32;100389.63;;;20.39;100.00
4586;BME280;2305;50.118;8.952;2023-09-19T08:55:06;100398.78;;;20.30;100.00
4586;BME280;2305;50.118;8.952;2023-09-19T08:57:38;100378.84;;;20.33;100.00
4586;BME280;2305;50.118;8.952;2023-09-19T09:00:09;100384.81;;;20.35;100.00
4586;BME280;2305;50.118;8.952;2023-09-19T09:02:39;100375.22;;;20.40;100.00
4586;BME280;2305;50.118;8.952;2023-09-19T09:05:09;100379.53;;;20.41;100.00
4586;BME280;2305;50.118;8.952;2023-09-19T09:07:42;100390.53;;;20.46;100.00
4586;BME280;2305;50.118;8.952;2023-09-19T09:10:11;100369.84;;;20.40;100.00
4586;BME280;2305;50.118;8.952;2023-09-19T09:12:44;100380.38;;;20.42;100.00
4586;BME280;2305;50.118;8.952;2023-09-19T09:15:13;100384.78;;;20.49;100.00
4586;BME280;2305;50.118;8.952;2023-09-19T09:17:47;100388.03;;;20.59;100.00
4586;BME280;2305;50.118;8.952;2023-09-19T09:20:17;100388.47;;;20.63;100.00
4586;BME280;2305;50.118;8.952;2023-09-19T09:22:52;100380.66;;;20.82;100.00
4586;BME280;2305;50.118;8.952;2023-09-19T09:25:21;100383.72;;;20.94;100.00
4586;BME280;2305;50.118;8.952;2023-09-19T09:28:02;100370.31;;;20.94;100.00
4586;BME280;2305;50.118;8.952;2023-09-19T09:30:34;100384.25;;;21.04;100.00
4586;BME280;2305;50.118;8.952;2023-09-19T09:33:08;100392.16;;;21.12;100.00
4586;BME280;2305;50.118;8.952;2023-09-19T09:35:47;100390.81;;;21.01;100.00
4586;BME280;2305;50.118;8.952;2023-09-19T09:38:20;100384.91;;;20.91;100.00
4586;BME280;2305;50.118;8.952;2023-09-19T09:40:50;100388.94;;;21.02;100.00
4586;BME280;2305;50.118;8.952;2023-09-19T09:43:33;100390.41;;;21.04;100.00
4586;BME280;2305;50.118;8.952;2023-09-19T09:46:11;100390.63;;;21.03;100.00
4586;BME280;2305;50.118;8.952;2023-09-19T09:49:01;100395.19;;;20.88;100.00
4586;BME280;2305;50.118;8.952;2023-09-19T09:52:04;100394.25;;;20.81;100.00
4586;BME280;2305;50.118;8.952;2023-09-19T09:54:58;100392.06;;;20.70;100.00
4586;BME280;2305;50.118;8.952;2023-09-19T09:57:28;100391.56;;;20.81;100.00
4586;BME280;2305;50.118;8.952;2023-09-19T10:00:01;100398.03;;;20.86;100.00
4586;BME280;2305;50.118;8.952;2023-09-19T10:02:43;100395.63;;;20.91;100.00
4586;BME280;2305;50.118;8.952;2023-09-19T10:05:15;100395.53;;;20.99;100.00
4586;BME280;2305;50.118;8.952;2023-09-19T10:08:10;100404.22;;;21.22;100.00
4586;BME280;2305;50.118;8.952;2023-09-19T10:10:42;100399.94;;;21.28;100.00
4586;BME280;2305;50.118;8.952;2023-09-19T10:13:22;100398.56;;;21.32;100.00
4586;BME280;2305;50.118;8.952;2023-09-19T10:15:56;100403.91;;;21.32;100.00
4586;BME280;2305;50.118;8.952;2023-09-19T10:18:27;100406.63;;;21.17;100.00
4586;BME280;2305;50.118;8.952;2023-09-19T10:20:57;100409.06;;;21.12;100.00
4586;BME280;2305;50.118;8.952;2023-09-19T10:23:27;100398.09;;;21.07;100.00
4586;BME280;2305;50.118;8.952;2023-09-19T10:26:02;100402.44;;;21.08;100.00
4586;BME280;2305;50.118;8.952;2023-09-19T10:28:36;100398.66;;;21.24;100.00
4586;BME280;2305;50.118;8.952;2023-09-19T10:31:07;100399.22;;;21.19;100.00
4586;BME280;2305;50.118;8.952;2023-09-19T10:33:42;100403.19;;;21.23;100.00
4586;BME280;2305;50.118;8.952;2023-09-19T10:36:12;100408.75;;;21.22;100.00
4586;BME280;2305;50.118;8.952;2023-09-19T10:38:43;100404.47;;;21.27;100.00
4586;BME280;2305;50.118;8.952;2023-09-19T10:41:16;100400.06;;;21.20;100.00
4586;BME280;2305;50.118;8.952;2023-09-19T10:43:45;100405.25;;;21.21;100.00
4586;BME280;2305;50.118;8.952;2023-09-19T10:46:18;100408.28;;;21.18;100.00
4586;BME280;2305;50.118;8.952;2023-09-19T10:48:50;100403.13;;;21.17;100.00
4586;BME280;2305;50.118;8.952;2023-09-19T10:51:24;100403.25;;;21.30;100.00
4586;BME280;2305;50.118;8.952;2023-09-19T10:54:02;100408.47;;;21.38;100.00
4586;BME280;2305;50.118;8.952;2023-09-19T10:56:36;100414.63;;;21.53;100.00
4586;BME280;2305;50.118;8.952;2023-09-19T10:59:06;100405.13;;;21.50;100.00
4586;BME280;2305;50.118;8.952;2023-09-19T11:01:45;100398.97;;;21.56;97.90
4586;BME280;2305;50.118;8.952;2023-09-19T11:04:26;100406.00;;;21.57;98.82
4586;BME280;2305;50.118;8.952;2023-09-19T11:07:03;100413.38;;;21.55;100.00
4586;BME280;2305;50.118;8.952;2023-09-19T11:09:48;100414.41;;;21.54;100.00
4586;BME280;2305;50.118;8.952;2023-09-19T11:12:49;100400.44;;;21.59;100.00
4586;BME280;2305;50.118;8.952;2023-09-19T11:18:54;100406.22;;;21.83;95.58
4586;BME280;2305;50.118;8.952;2023-09-19T11:21:51;100392.09;;;21.68;100.00
4586;BME280;2305;50.118;8.952;2023-09-19T11:24:28;100389.09;;;21.84;100.00
4586;BME280;2305;50.118;8.952;2023-09-19T11:27:14;100381.84;;;22.06;100.00
4586;BME280;2305;50.118;8.952;2023-09-19T11:29:44;100384.41;;;22.20;100.00
4586;BME280;2305;50.118;8.952;2023-09-19T11:32:13;100383.56;;;22.20;100.00
4586;BME280;2305;50.118;8.952;2023-09-19T11:34:47;100375.25;;;22.08;100.00
4586;BME280;2305;50.118;8.952;2023-09-19T11:40:37;100368.66;;;21.83;100.00
4586;BME280;2305;50.118;8.952;2023-09-19T11:43:36;100375.22;;;21.74;100.00
4586;BME280;2305;50.118;8.952;2023-09-19T11:46:09;100364.16;;;21.63;100.00
4586;BME280;2305;50.118;8.952;2023-09-19T11:48:39;100357.47;;;21.73;100.00
4586;BME280;2305;50.118;8.952;2023-09-19T11:51:27;100357.34;;;21.88;100.00
4586;BME280;2305;50.118;8.952;2023-09-19T11:53:57;100375.19;;;22.02;97.89
4586;BME280;2305;50.118;8.952;2023-09-19T11:56:27;100369.22;;;21.72;92.53
4586;BME280;2305;50.118;8.952;2023-09-19T11:58:58;100358.50;;;21.51;92.04
4586;BME280;2305;50.118;8.952;2023-09-19T12:01:29;100357.13;;;21.62;94.41
4586;BME280;2305;50.118;8.952;2023-09-19T12:04:03;100358.72;;;21.77;94.98
4586;BME280;2305;50.118;8.952;2023-09-19T12:06:33;100360.78;;;22.03;96.64
4586;BME280;2305;50.118;8.952;2023-09-19T12:09:12;100360.13;;;22.41;91.87
4586;BME280;2305;50.118;8.952;2023-09-19T12:11:44;100361.06;;;22.61;85.23
4586;BME280;2305;50.118;8.952;2023-09-19T12:14:22;100364.84;;;22.73;85.03
4586;BME280;2305;50.118;8.952;2023-09-19T12:16:53;100365.81;;;22.53;86.21
4586;BME280;2305;50.118;8.952;2023-09-19T12:19:24;100366.25;;;22.29;85.68
4586;BME280;2305;50.118;8.952;2023-09-19T12:21:56;100362.00;;;22.07;90.62
4586;BME280;2305;50.118;8.952;2023-09-19T12:24:27;100359.31;;;22.00;91.94
4586;BME280;2305;50.118;8.952;2023-09-19T12:27:02;100361.91;;;21.87;93.96
4586;BME280;2305;50.118;8.952;2023-09-19T12:29:32;100356.97;;;21.91;92.97
4586;BME280;2305;50.118;8.952;2023-09-19T12:32:09;100347.34;;;22.03;93.10
4586;BME280;2305;50.118;8.952;2023-09-19T12:34:38;100353.19;;;22.19;92.00
4586;BME280;2305;50.118;8.952;2023-09-19T12:37:13;100346.56;;;22.49;87.61
4586;BME280;2305;50.118;8.952;2023-09-19T12:39:50;100349.94;;;22.71;87.65
4586;BME280;2305;50.118;8.952;2023-09-19T12:42:22;100340.88;;;22.85;87.20
4586;BME280;2305;50.118;8.952;2023-09-19T12:44:53;100332.81;;;22.85;84.60
4586;BME280;2305;50.118;8.952;2023-09-19T12:47:25;100327.25;;;22.86;85.97
4586;BME280;2305;50.118;8.952;2023-09-19T12:50:06;100327.69;;;23.09;84.14
4586;BME280;2305;50.118;8.952;2023-09-19T12:52:43;100332.50;;;23.33;84.19
4586;BME280;2305;50.118;8.952;2023-09-19T12:55:21;100344.50;;;23.57;74.78
4586;BME280;2305;50.118;8.952;2023-09-19T12:57:59;100325.84;;;23.68;71.27
4586;BME280;2305;50.118;8.952;2023-09-19T13:00:37;100340.16;;;23.62;74.33
4586;BME280;2305;50.118;8.952;2023-09-19T13:03:16;100329.41;;;23.49;73.86
4586;BME280;2305;50.118;8.952;2023-09-19T13:05:53;100331.47;;;23.60;77.47
4586;BME280;2305;50.118;8.952;2023-09-19T13:08:28;100315.06;;;23.81;77.91
4586;BME280;2305;50.118;8.952;2023-09-19T13:11:06;100328.31;;;24.02;79.49
4586;BME280;2305;50.118;8.952;2023-09-19T13:13:38;100322.69;;;24.10;71.50
4586;BME280;2305;50.118;8.952;2023-09-19T13:16:07;100310.44;;;24.21;73.41
4586;BME280;2305;50.118;8.952;2023-09-19T13:18:43;100315.25;;;24.12;72.09
4586;BME280;2305;50.118;8.952;2023-09-19T13:21:15;100313.16;;;24.08;75.18
4586;BME280;2305;50.118;8.952;2023-09-19T13:23:52;100311.13;;;24.03;72.75
4586;BME280;2305;50.118;8.952;2023-09-19T13:26:22;100316.63;;;24.34;71.84
4586;BME280;2305;50.118;8.952;2023-09-19T13:28:50;100328.53;;;24.64;71.76
4586;BME280;2305;50.118;8.952;2023-09-19T13:31:20;100300.84;;;24.81;70.72
4586;BME280;2305;50.118;8.952;2023-09-19T13:33:49;100317.47;;;25.03;67.89
4586;BME280;2305;50.118;8.952;2023-09-19T13:36:19;100309.44;;;24.96;64.94
4586;BME280;2305;50.118;8.952;2023-09-19T13:38:49;100303.34;;;24.83;63.09
4586;BME280;2305;50.118;8.952;2023-09-19T13:41:18;100303.94;;;24.41;64.38